Aigaion — SYMC — position and weather

sailwx.info

Track history (hours):
 
Tides and Currents Weather Stations Pressure Air Temp Water Temp Dewpoint Dewpoint Depression Visibility Wind Speed Wind Dir Waves Ship Positions

Aigaion

Last reported at 2017-Oct-16 11:08 UTC. Time now 2017-Oct-22 13:59 UTC.
Position S 18°39' E 118°09'.

Length 289 m; draft 17.9 m.

Type: Cargo ship. MMSI: 240174000.

Date/timePositionNaut miles runAvg speedWind from/ knotsBaromVisibWave heightAir tempDewpointWater temp
2017-Oct-16 11:08S 18°39' E 118°09'1 9.4
2017-Oct-16 10:59S 18°41' E 118°09'4 9.1
2017-Oct-16 10:30S 18°45' E 118°10'9 9.2
2017-Oct-16 09:32S 18°54' E 118°13'0 8.7
2017-Oct-16 09:30S 18°54' E 118°13'6 9.0
2017-Oct-16 08:50S 18°60' E 118°14'18 9.2
2017-Oct-16 06:54S 19°17' E 118°18'4 9.7
2017-Oct-16 06:30S 19°21' E 118°19'5 9.8
2017-Oct-16 06:00S 19°26' E 118°20'6 9.9
2017-Oct-16 05:21S 19°32' E 118°22'5 9.8
2017-Oct-16 04:49S 19°37' E 118°23'5 9.8
2017-Oct-16 04:19S 19°42' E 118°24'5 9.7
2017-Oct-16 03:50S 19°46' E 118°25'3 9.7
2017-Oct-16 03:30S 19°50' E 118°26'5 9.6
2017-Oct-16 03:00S 19°54' E 118°27'5 9.6
2017-Oct-16 02:30S 19°59' E 118°27'611.1
2017-Oct-16 02:00S 20°04' E 118°25'611.0
2017-Oct-16 01:26S 20°09' E 118°30'12 3.8
2017-Oct-15 22:22S 20°19' E 118°35'0 0.0
2017-Oct-15 21:46S 20°19' E 118°35'0 0.0
2017-Oct-15 20:04S 20°19' E 118°35'0 0.0
2017-Oct-15 19:46S 20°19' E 118°35'0 0.0
2017-Oct-15 18:16S 20°19' E 118°35'0 0.0
2017-Oct-15 17:46S 20°19' E 118°35'0 0.0
2017-Oct-15 17:28S 20°19' E 118°35'0 0.0
2017-Oct-15 16:52S 20°19' E 118°35'0 0.0
2017-Oct-15 16:28S 20°19' E 118°35'0 0.0
2017-Oct-15 15:58S 20°19' E 118°35'0 0.0
2017-Oct-15 15:28S 20°19' E 118°35'0 0.0
2017-Oct-15 13:40S 20°19' E 118°35'0 0.0
2017-Oct-15 13:28S 20°19' E 118°35'0 0.0
2017-Oct-15 12:58S 20°19' E 118°35'0 0.0
2017-Oct-15 12:10S 20°19' E 118°35'0 0.0
2017-Oct-15 11:58S 20°19' E 118°35'0 0.0
2017-Oct-15 10:22S 20°19' E 118°35'0 0.0
2017-Oct-15 09:58S 20°19' E 118°35'0 0.0
2017-Oct-15 08:34S 20°19' E 118°35'0 0.0
2017-Oct-15 08:22S 20°19' E 118°35'0 0.0
2017-Oct-15 06:58S 20°19' E 118°35'0 0.0
2017-Oct-15 06:04S 20°19' E 118°35'0 0.0
2017-Oct-15 05:52S 20°19' E 118°35'0 0.0
2017-Oct-15 04:22S 20°19' E 118°35'0 0.0
2017-Oct-15 03:52S 20°19' E 118°35'0 0.0
2017-Oct-15 03:28S 20°19' E 118°35'0 0.0
2017-Oct-14 23:34S 20°19' E 118°35'0 0.0
2017-Oct-14 23:28S 20°19' E 118°35'0 0.0
2017-Oct-14 22:40S 20°19' E 118°35'0 0.0
2017-Oct-14 21:52S 20°19' E 118°35'0 0.0
2017-Oct-14 21:28S 20°19' E 118°35'0 0.0
2017-Oct-14 20:40S 20°19' E 118°35'0 0.0
2017-Oct-14 20:28S 20°19' E 118°35'0 0.0
2017-Oct-14 19:58S 20°19' E 118°35'0 0.0
2017-Oct-14 19:16S 20°19' E 118°35'0 0.0
2017-Oct-14 18:58S 20°19' E 118°35'0 0.0
2017-Oct-14 18:22S 20°19' E 118°35'0 0.0
2017-Oct-14 17:58S 20°19' E 118°35'0 0.0
2017-Oct-14 17:22S 20°19' E 118°35'0 0.0
2017-Oct-14 16:52S 20°19' E 118°35'0 0.0
2017-Oct-14 16:22S 20°19' E 118°35'0 0.0
2017-Oct-14 14:58S 20°19' E 118°35'0 0.0
2017-Oct-14 14:28S 20°19' E 118°35'0 0.0
2017-Oct-14 13:55S 20°19' E 118°35'0 0.0
2017-Oct-14 13:04S 20°19' E 118°35'0 0.0
2017-Oct-14 12:55S 20°19' E 118°35'0 0.2
2017-Oct-14 12:30S 20°20' E 118°35'2 4.7
2017-Oct-14 12:00S 20°17' E 118°35'611.9
2017-Oct-14 11:30S 20°12' E 118°33'4 8.6
2017-Oct-14 11:00S 20°08' E 118°33'2 4.0
2017-Oct-14 10:30S 20°06' E 118°34'0 0.1
2017-Oct-14 09:51S 20°06' E 118°34'0 0.0
2017-Oct-14 09:27S 20°06' E 118°34'0 0.0
2017-Oct-14 08:39S 20°06' E 118°34'0 0.0
2017-Oct-14 08:21S 20°06' E 118°34'0 0.0
2017-Oct-14 07:57S 20°06' E 118°34'0 0.0
2017-Oct-14 07:27S 20°06' E 118°34'0 0.0
2017-Oct-14 06:57S 20°06' E 118°34'0 0.0
2017-Oct-14 06:30S 20°06' E 118°34'0 0.0
2017-Oct-14 05:57S 20°06' E 118°34'0 0.0
2017-Oct-14 05:21S 20°06' E 118°34'0 0.0
2017-Oct-14 03:51S 20°06' E 118°34'0 0.0
2017-Oct-14 03:27S 20°06' E 118°34'0 0.0
2017-Oct-14 02:57S 20°06' E 118°34'0 0.0
2017-Oct-14 02:27S 20°06' E 118°34'0 0.1
2017-Oct-14 01:51S 20°06' E 118°34'0 0.1
2017-Oct-14 01:27S 20°06' E 118°34'0 0.1
2017-Oct-14 00:57S 20°06' E 118°34'0 0.1
2017-Oct-14 00:21S 20°06' E 118°34'0 0.0
2017-Oct-13 23:51S 20°06' E 118°34'0 0.0
2017-Oct-13 22:39S 20°06' E 118°34'0 0.0
2017-Oct-13 21:39S 20°06' E 118°34'0 0.0
2017-Oct-13 21:27S 20°06' E 118°34'0 0.0
2017-Oct-13 20:51S 20°06' E 118°34'0 0.0
2017-Oct-13 20:27S 20°06' E 118°34'0 0.0
2017-Oct-13 19:57S 20°06' E 118°34'0 0.0
2017-Oct-13 19:27S 20°06' E 118°34'0 0.0
2017-Oct-13 18:57S 20°06' E 118°34'0 0.0
2017-Oct-13 18:27S 20°06' E 118°34'0 0.0
2017-Oct-13 13:33S 20°06' E 118°34'0 0.0
2017-Oct-13 13:03S 20°06' E 118°34'0 0.1
2017-Oct-13 12:51S 20°06' E 118°34'0 0.1
2017-Oct-13 12:15S 20°06' E 118°34'0 0.0
2017-Oct-13 11:57S 20°06' E 118°34'0 0.0
2017-Oct-13 11:27S 20°06' E 118°34'0 0.0
2017-Oct-13 10:39S 20°06' E 118°34'0 0.0
2017-Oct-13 10:27S 20°06' E 118°34'0 0.0
2017-Oct-13 09:57S 20°06' E 118°34'0 0.0
2017-Oct-13 09:27S 20°06' E 118°34'0 0.0
2017-Oct-13 08:39S 20°06' E 118°34'0 0.1
2017-Oct-13 08:27S 20°06' E 118°34'0 0.0
2017-Oct-13 07:57S 20°06' E 118°34'0 0.1
2017-Oct-13 07:21S 20°06' E 118°34'0 0.0
2017-Oct-13 06:57S 20°06' E 118°34'0 0.1
2017-Oct-13 06:27S 20°06' E 118°34'0 0.0
2017-Oct-13 05:57S 20°06' E 118°34'8 0.8
2017-Oct-12 19:56S 19°59' E 118°30'4 8.4
2017-Oct-12 19:29S 19°55' E 118°28'611.8
2017-Oct-12 19:00S 19°50' E 118°27'612.6
2017-Oct-12 18:30S 19°44' E 118°26'612.7
2017-Oct-12 18:00S 19°37' E 118°24'612.6
2017-Oct-12 17:30S 19°31' E 118°23'612.7
2017-Oct-12 17:00S 19°25' E 118°21'612.9
2017-Oct-12 16:30S 19°19' E 118°19'712.9
2017-Oct-12 16:00S 19°13' E 118°17'713.0
2017-Oct-12 15:28S 19°06' E 118°16'813.0
2017-Oct-12 14:52S 18°58' E 118°13'412.5
2017-Oct-12 14:30S 18°54' E 118°12'712.7
2017-Oct-12 13:59S 18°48' E 118°11'612.8
2017-Oct-12 13:30S 18°42' E 118°09'713.1
2017-Oct-12 12:59S 18°35' E 118°08'612.3
2017-Oct-12 12:30S 18°29' E 118°06'1412.2
2017-Oct-12 11:21S 18°16' E 118°02'11012.2
2017-Oct-12 02:20S 16°29' E 117°38'411.8
2017-Oct-12 02:00S 16°25' E 117°37'1812.0
2017-Oct-12 00:29S 16°07' E 117°33'611.9
2017-Oct-11 23:58S 16°01' E 117°31'511.2
2017-Oct-11 23:30S 15°56' E 117°30'611.2
2017-Oct-11 22:59S 15°50' E 117°28'511.3
2017-Oct-11 22:30S 15°45' E 117°26'611.0
2017-Oct-11 21:59S 15°40' E 117°25'710.9
2017-Oct-11 21:18S 15°32' E 117°23'1011.1
2017-Oct-11 20:25S 15°23' E 117°21'511.1
2017-Oct-11 19:58S 15°18' E 117°20'511.0
2017-Oct-11 19:29S 15°13' E 117°18'  
Track history (hours):
 
Tides and Currents Weather Stations Pressure Air Temp Water Temp Dewpoint Dewpoint Depression Visibility Wind Speed Wind Dir Waves Ship Positions

Aigaion

Last reported at 2017-Oct-16 11:08 UTC. Time now 2017-Oct-22 13:59 UTC.
Position S 18°39' E 118°09'.

Length 289 m; draft 17.9 m.

Type: Cargo ship. MMSI: 240174000.

Date/timePositionNaut miles runAvg speedWind from/ knotsBaromVisibWave heightAir tempDewpointWater temp
2017-Oct-16 11:08S 18°39' E 118°09'1 9.4
2017-Oct-16 10:59S 18°41' E 118°09'4 9.1
2017-Oct-16 10:30S 18°45' E 118°10'9 9.2
2017-Oct-16 09:32S 18°54' E 118°13'0 8.7
2017-Oct-16 09:30S 18°54' E 118°13'6 9.0
2017-Oct-16 08:50S 18°60' E 118°14'18 9.2
2017-Oct-16 06:54S 19°17' E 118°18'4 9.7
2017-Oct-16 06:30S 19°21' E 118°19'5 9.8
2017-Oct-16 06:00S 19°26' E 118°20'6 9.9
2017-Oct-16 05:21S 19°32' E 118°22'5 9.8
2017-Oct-16 04:49S 19°37' E 118°23'5 9.8
2017-Oct-16 04:19S 19°42' E 118°24'5 9.7
2017-Oct-16 03:50S 19°46' E 118°25'3 9.7
2017-Oct-16 03:30S 19°50' E 118°26'5 9.6
2017-Oct-16 03:00S 19°54' E 118°27'5 9.6
2017-Oct-16 02:30S 19°59' E 118°27'611.1
2017-Oct-16 02:00S 20°04' E 118°25'611.0
2017-Oct-16 01:26S 20°09' E 118°30'12 3.8
2017-Oct-15 22:22S 20°19' E 118°35'0 0.0
2017-Oct-15 21:46S 20°19' E 118°35'0 0.0
2017-Oct-15 20:04S 20°19' E 118°35'0 0.0
2017-Oct-15 19:46S 20°19' E 118°35'0 0.0
2017-Oct-15 18:16S 20°19' E 118°35'0 0.0
2017-Oct-15 17:46S 20°19' E 118°35'0 0.0
2017-Oct-15 17:28S 20°19' E 118°35'0 0.0
2017-Oct-15 16:52S 20°19' E 118°35'0 0.0
2017-Oct-15 16:28S 20°19' E 118°35'0 0.0
2017-Oct-15 15:58S 20°19' E 118°35'0 0.0
2017-Oct-15 15:28S 20°19' E 118°35'0 0.0
2017-Oct-15 13:40S 20°19' E 118°35'0 0.0
2017-Oct-15 13:28S 20°19' E 118°35'0 0.0
2017-Oct-15 12:58S 20°19' E 118°35'0 0.0
2017-Oct-15 12:10S 20°19' E 118°35'0 0.0
2017-Oct-15 11:58S 20°19' E 118°35'0 0.0
2017-Oct-15 10:22S 20°19' E 118°35'0 0.0
2017-Oct-15 09:58S 20°19' E 118°35'0 0.0
2017-Oct-15 08:34S 20°19' E 118°35'0 0.0
2017-Oct-15 08:22S 20°19' E 118°35'0 0.0
2017-Oct-15 06:58S 20°19' E 118°35'0 0.0
2017-Oct-15 06:04S 20°19' E 118°35'0 0.0
2017-Oct-15 05:52S 20°19' E 118°35'0 0.0
2017-Oct-15 04:22S 20°19' E 118°35'0 0.0
2017-Oct-15 03:52S 20°19' E 118°35'0 0.0
2017-Oct-15 03:28S 20°19' E 118°35'0 0.0
2017-Oct-14 23:34S 20°19' E 118°35'0 0.0
2017-Oct-14 23:28S 20°19' E 118°35'0 0.0
2017-Oct-14 22:40S 20°19' E 118°35'0 0.0
2017-Oct-14 21:52S 20°19' E 118°35'0 0.0
2017-Oct-14 21:28S 20°19' E 118°35'0 0.0
2017-Oct-14 20:40S 20°19' E 118°35'0 0.0
2017-Oct-14 20:28S 20°19' E 118°35'0 0.0
2017-Oct-14 19:58S 20°19' E 118°35'0 0.0
2017-Oct-14 19:16S 20°19' E 118°35'0 0.0
2017-Oct-14 18:58S 20°19' E 118°35'0 0.0
2017-Oct-14 18:22S 20°19' E 118°35'0 0.0
2017-Oct-14 17:58S 20°19' E 118°35'0 0.0
2017-Oct-14 17:22S 20°19' E 118°35'0 0.0
2017-Oct-14 16:52S 20°19' E 118°35'0 0.0
2017-Oct-14 16:22S 20°19' E 118°35'0 0.0
2017-Oct-14 14:58S 20°19' E 118°35'0 0.0
2017-Oct-14 14:28S 20°19' E 118°35'0 0.0
2017-Oct-14 13:55S 20°19' E 118°35'0 0.0
2017-Oct-14 13:04S 20°19' E 118°35'0 0.0
2017-Oct-14 12:55S 20°19' E 118°35'0 0.2
2017-Oct-14 12:30S 20°20' E 118°35'2 4.7
2017-Oct-14 12:00S 20°17' E 118°35'611.9
2017-Oct-14 11:30S 20°12' E 118°33'4 8.6
2017-Oct-14 11:00S 20°08' E 118°33'2 4.0
2017-Oct-14 10:30S 20°06' E 118°34'0 0.1
2017-Oct-14 09:51S 20°06' E 118°34'0 0.0
2017-Oct-14 09:27S 20°06' E 118°34'0 0.0
2017-Oct-14 08:39S 20°06' E 118°34'0 0.0
2017-Oct-14 08:21S 20°06' E 118°34'0 0.0
2017-Oct-14 07:57S 20°06' E 118°34'0 0.0
2017-Oct-14 07:27S 20°06' E 118°34'0 0.0
2017-Oct-14 06:57S 20°06' E 118°34'0 0.0
2017-Oct-14 06:30S 20°06' E 118°34'0 0.0
2017-Oct-14 05:57S 20°06' E 118°34'0 0.0
2017-Oct-14 05:21S 20°06' E 118°34'0 0.0
2017-Oct-14 03:51S 20°06' E 118°34'0 0.0
2017-Oct-14 03:27S 20°06' E 118°34'0 0.0
2017-Oct-14 02:57S 20°06' E 118°34'0 0.0
2017-Oct-14 02:27S 20°06' E 118°34'0 0.1
2017-Oct-14 01:51S 20°06' E 118°34'0 0.1
2017-Oct-14 01:27S 20°06' E 118°34'0 0.1
2017-Oct-14 00:57S 20°06' E 118°34'0 0.1
2017-Oct-14 00:21S 20°06' E 118°34'0 0.0
2017-Oct-13 23:51S 20°06' E 118°34'0 0.0
2017-Oct-13 22:39S 20°06' E 118°34'0 0.0
2017-Oct-13 21:39S 20°06' E 118°34'0 0.0
2017-Oct-13 21:27S 20°06' E 118°34'0 0.0
2017-Oct-13 20:51S 20°06' E 118°34'0 0.0
2017-Oct-13 20:27S 20°06' E 118°34'0 0.0
2017-Oct-13 19:57S 20°06' E 118°34'0 0.0
2017-Oct-13 19:27S 20°06' E 118°34'0 0.0
2017-Oct-13 18:57S 20°06' E 118°34'0 0.0
2017-Oct-13 18:27S 20°06' E 118°34'0 0.0
2017-Oct-13 13:33S 20°06' E 118°34'0 0.0
2017-Oct-13 13:03S 20°06' E 118°34'0 0.1
2017-Oct-13 12:51S 20°06' E 118°34'0 0.1
2017-Oct-13 12:15S 20°06' E 118°34'0 0.0
2017-Oct-13 11:57S 20°06' E 118°34'0 0.0
2017-Oct-13 11:27S 20°06' E 118°34'0 0.0
2017-Oct-13 10:39S 20°06' E 118°34'0 0.0
2017-Oct-13 10:27S 20°06' E 118°34'0 0.0
2017-Oct-13 09:57S 20°06' E 118°34'0 0.0
2017-Oct-13 09:27S 20°06' E 118°34'0 0.0
2017-Oct-13 08:39S 20°06' E 118°34'0 0.1
2017-Oct-13 08:27S 20°06' E 118°34'0 0.0
2017-Oct-13 07:57S 20°06' E 118°34'0 0.1
2017-Oct-13 07:21S 20°06' E 118°34'0 0.0
2017-Oct-13 06:57S 20°06' E 118°34'0 0.1
2017-Oct-13 06:27S 20°06' E 118°34'0 0.0
2017-Oct-13 05:57S 20°06' E 118°34'8 0.8
2017-Oct-12 19:56S 19°59' E 118°30'4 8.4
2017-Oct-12 19:29S 19°55' E 118°28'611.8
2017-Oct-12 19:00S 19°50' E 118°27'612.6
2017-Oct-12 18:30S 19°44' E 118°26'612.7
2017-Oct-12 18:00S 19°37' E 118°24'612.6
2017-Oct-12 17:30S 19°31' E 118°23'612.7
2017-Oct-12 17:00S 19°25' E 118°21'612.9
2017-Oct-12 16:30S 19°19' E 118°19'712.9
2017-Oct-12 16:00S 19°13' E 118°17'713.0
2017-Oct-12 15:28S 19°06' E 118°16'813.0
2017-Oct-12 14:52S 18°58' E 118°13'412.5
2017-Oct-12 14:30S 18°54' E 118°12'712.7
2017-Oct-12 13:59S 18°48' E 118°11'612.8
2017-Oct-12 13:30S 18°42' E 118°09'713.1
2017-Oct-12 12:59S 18°35' E 118°08'612.3
2017-Oct-12 12:30S 18°29' E 118°06'1412.2
2017-Oct-12 11:21S 18°16' E 118°02'11012.2
2017-Oct-12 02:20S 16°29' E 117°38'411.8
2017-Oct-12 02:00S 16°25' E 117°37'1812.0
2017-Oct-12 00:29S 16°07' E 117°33'611.9
2017-Oct-11 23:58S 16°01' E 117°31'511.2
2017-Oct-11 23:30S 15°56' E 117°30'611.2
2017-Oct-11 22:59S 15°50' E 117°28'511.3
2017-Oct-11 22:30S 15°45' E 117°26'611.0
2017-Oct-11 21:59S 15°40' E 117°25'710.9
2017-Oct-11 21:18S 15°32' E 117°23'1011.1
2017-Oct-11 20:25S 15°23' E 117°21'511.1
2017-Oct-11 19:58S 15°18' E 117°20'511.0
2017-Oct-11 19:29S 15°13' E 117°18'  

Dump ship's entire track history